createdAt,value
2018-03-19T00:02:07.136Z,18.77
2018-03-19T00:04:57.855Z,16.77
2018-03-19T00:07:28.690Z,19.00
2018-03-19T00:09:59.962Z,19.03
2018-03-19T00:12:31.388Z,18.47
2018-03-19T00:15:07.863Z,17.67
2018-03-19T00:17:38.354Z,17.67
2018-03-19T00:20:09.159Z,18.25
2018-03-19T00:22:39.610Z,17.30
2018-03-19T00:25:11.372Z,19.83
2018-03-19T00:27:42.266Z,19.05
2018-03-19T00:30:12.891Z,18.67
2018-03-19T00:32:43.582Z,18.48
2018-03-19T00:35:14.446Z,18.33
2018-03-19T00:37:45.504Z,19.45
2018-03-19T00:40:16.264Z,17.85
2018-03-19T00:42:47.774Z,18.75
2018-03-19T00:45:19.297Z,16.80
2018-03-19T00:47:50.301Z,19.47
2018-03-19T00:50:21.018Z,18.55
2018-03-19T00:52:55.286Z,18.67
2018-03-19T00:55:26.027Z,18.45
2018-03-19T00:57:56.673Z,17.15
2018-03-19T01:00:27.797Z,19.10
2018-03-19T01:02:58.606Z,18.85
2018-03-19T01:05:30.051Z,17.40
2018-03-19T01:08:01.959Z,18.75
2018-03-19T01:10:32.962Z,17.77
2018-03-19T01:13:03.681Z,18.33
2018-03-19T01:15:35.109Z,18.33
2018-03-19T01:18:05.806Z,19.02
2018-03-19T01:20:36.271Z,19.92
2018-03-19T01:23:06.687Z,19.00
2018-03-19T01:25:37.522Z,17.27
2018-03-19T01:28:08.562Z,17.83
2018-03-19T01:30:40.261Z,19.15
2018-03-19T01:33:11.062Z,19.42
2018-03-19T01:35:43.009Z,18.07
2018-03-19T01:38:15.132Z,18.23
2018-03-19T01:40:46.101Z,18.17
2018-03-19T01:43:17.053Z,18.87
2018-03-19T01:45:49.010Z,19.27
2018-03-19T01:48:20.087Z,18.58
2018-03-19T01:50:50.636Z,18.80
2018-03-19T01:53:21.522Z,18.23
2018-03-19T01:55:52.370Z,17.60
2018-03-19T01:58:22.907Z,18.25
2018-03-19T02:00:53.783Z,18.87
2018-03-19T02:03:24.287Z,19.45
2018-03-19T02:05:54.795Z,19.40
2018-03-19T02:08:26.062Z,18.77
2018-03-19T02:10:57.013Z,19.58
2018-03-19T02:13:27.408Z,19.58
2018-03-19T02:15:58.045Z,19.48
2018-03-19T02:18:28.455Z,19.02
2018-03-19T02:20:59.512Z,18.60
2018-03-19T02:23:30.695Z,18.73
2018-03-19T02:26:01.731Z,18.87
2018-03-19T02:28:33.654Z,18.50
2018-03-19T02:31:04.576Z,18.80
2018-03-19T02:33:36.197Z,19.95
2018-03-19T02:36:07.305Z,18.27
2018-03-19T02:38:38.121Z,19.90
2018-03-19T02:41:10.101Z,18.83
2018-03-19T02:43:41.629Z,18.00
2018-03-19T02:46:12.538Z,19.37
2018-03-19T02:48:46.603Z,19.53
2018-03-19T02:51:17.142Z,18.98
2018-03-19T02:53:48.059Z,19.15
2018-03-19T02:56:18.982Z,19.12
2018-03-19T02:58:50.671Z,17.55
2018-03-19T03:01:21.845Z,18.15
2018-03-19T03:03:52.452Z,19.08
2018-03-19T03:06:23.138Z,18.30
2018-03-19T03:08:53.787Z,19.60
2018-03-19T03:11:24.971Z,20.17
2018-03-19T03:13:56.742Z,18.80
2018-03-19T03:16:27.237Z,21.07
2018-03-19T03:18:59.285Z,20.20
2018-03-19T03:21:31.589Z,19.43
2018-03-19T03:24:03.206Z,19.60
2018-03-19T03:26:35.024Z,20.25
2018-03-19T03:29:06.606Z,20.20
2018-03-19T03:31:37.781Z,20.62
2018-03-19T03:34:08.752Z,21.20
2018-03-19T03:36:39.259Z,20.77
2018-03-19T03:39:09.830Z,18.50
2018-03-19T03:41:40.476Z,20.30
2018-03-19T03:44:11.027Z,19.92
2018-03-19T03:46:41.815Z,21.60
2018-03-19T03:49:12.909Z,20.92
2018-03-19T03:51:43.918Z,20.92
2018-03-19T03:54:14.566Z,21.80
2018-03-19T03:56:45.531Z,19.73
2018-03-19T03:59:15.970Z,20.52
2018-03-19T04:01:51.017Z,24.02
2018-03-19T04:04:21.811Z,20.70
2018-03-19T04:06:53.498Z,21.73
2018-03-19T04:09:24.844Z,23.97
2018-03-19T04:11:56.059Z,23.25
2018-03-19T04:14:28.733Z,23.03
2018-03-19T04:16:59.581Z,21.60
2018-03-19T04:19:30.611Z,23.53
2018-03-19T04:22:01.384Z,22.70
2018-03-19T04:24:32.256Z,22.85
2018-03-19T04:27:03.080Z,22.50
2018-03-19T04:29:33.906Z,22.35
2018-03-19T04:32:05.687Z,22.93
2018-03-19T04:34:37.135Z,22.75
2018-03-19T04:37:08.511Z,24.08
2018-03-19T04:39:39.443Z,23.02
2018-03-19T04:42:10.202Z,22.87
2018-03-19T04:44:40.810Z,22.95
2018-03-19T04:47:12.235Z,22.10
2018-03-19T04:49:44.222Z,23.77
2018-03-19T04:52:14.795Z,22.47
2018-03-19T04:54:45.512Z,23.20
2018-03-19T04:57:15.830Z,22.95
2018-03-19T04:59:47.462Z,22.90
2018-03-19T05:02:18.205Z,22.73
2018-03-19T05:04:52.581Z,22.52
2018-03-19T05:07:23.330Z,23.15
2018-03-19T05:09:54.144Z,23.03
2018-03-19T05:12:24.760Z,22.70
2018-03-19T05:14:55.432Z,23.47
2018-03-19T05:17:26.683Z,22.73
2018-03-19T05:19:57.258Z,24.33
2018-03-19T05:22:27.912Z,22.98
2018-03-19T05:24:58.419Z,23.25
2018-03-19T05:27:29.875Z,24.40
2018-03-19T05:30:00.464Z,22.48
2018-03-19T05:32:30.893Z,22.83
2018-03-19T05:35:01.618Z,23.67
2018-03-19T05:37:32.079Z,23.25
2018-03-19T05:40:02.591Z,23.95
2018-03-19T05:42:33.657Z,22.25
2018-03-19T05:45:04.256Z,23.70
2018-03-19T05:47:37.030Z,23.92
2018-03-19T05:50:09.909Z,23.70
2018-03-19T05:52:42.903Z,22.95
2018-03-19T05:55:19.287Z,24.37
2018-03-19T05:57:49.860Z,24.35
2018-03-19T06:00:21.297Z,24.15
2018-03-19T06:03:16.818Z,25.52
2018-03-19T06:05:49.283Z,24.80
2018-03-19T06:08:20.448Z,25.88
2018-03-19T06:10:56.971Z,22.20
2018-03-19T06:13:29.198Z,23.53
2018-03-19T06:15:59.829Z,22.62
2018-03-19T06:18:30.281Z,22.77
2018-03-19T06:21:05.352Z,21.83
2018-03-19T06:23:37.211Z,22.45
2018-03-19T06:26:36.379Z,21.75
2018-03-19T06:29:08.125Z,23.02
2018-03-19T06:32:13.110Z,24.20
2018-03-19T06:38:25.313Z,22.27
2018-03-19T06:41:00.748Z,20.47
2018-03-19T06:43:32.999Z,20.17
2018-03-19T06:46:05.734Z,22.90
2018-03-19T06:48:36.072Z,25.00
2018-03-19T06:51:13.878Z,23.98
2018-03-19T06:53:54.815Z,22.25
2018-03-19T06:56:25.459Z,22.33
2018-03-19T06:58:56.472Z,22.60
2018-03-19T07:01:28.083Z,21.00
2018-03-19T07:03:58.386Z,22.13
2018-03-19T07:06:31.461Z,23.13
2018-03-19T07:09:04.541Z,24.70
2018-03-19T07:11:37.035Z,22.62
2018-03-19T07:14:08.042Z,23.00
2018-03-19T07:16:38.309Z,23.67
2018-03-19T07:19:09.028Z,21.58
2018-03-19T07:21:41.061Z,24.17
2018-03-19T07:24:12.967Z,23.33
2018-03-19T07:26:48.983Z,23.67
2018-03-19T07:29:22.496Z,22.63
2018-03-19T07:31:53.675Z,21.98
2018-03-19T07:38:06.707Z,21.25
2018-03-19T07:40:38.397Z,24.52
2018-03-19T07:43:10.227Z,22.92
2018-03-19T07:45:45.410Z,22.87
2018-03-19T07:48:40.534Z,23.30
2018-03-19T07:51:12.929Z,22.00
2018-03-19T07:53:52.581Z,23.25
2018-03-19T07:56:24.424Z,22.75
2018-03-19T07:59:07.203Z,23.70
2018-03-19T08:01:38.501Z,23.67
2018-03-19T08:04:10.338Z,21.83
2018-03-19T08:06:43.734Z,22.17
2018-03-19T08:09:19.268Z,22.40
2018-03-19T08:11:56.242Z,22.20
2018-03-19T08:14:27.619Z,21.67
2018-03-19T08:16:59.563Z,21.30
2018-03-19T08:19:31.395Z,22.20
2018-03-19T08:22:05.179Z,25.58
2018-03-19T08:28:23.802Z,24.08
2018-03-19T08:31:21.548Z,23.35
2018-03-19T08:34:05.701Z,22.33
2018-03-19T08:36:47.376Z,23.83
2018-03-19T08:39:22.102Z,23.55
2018-03-19T08:41:52.985Z,22.67
2018-03-19T08:44:24.638Z,26.50
2018-03-19T08:47:25.176Z,25.83
2018-03-19T08:49:57.076Z,24.13
2018-03-19T08:53:01.172Z,24.30
2018-03-19T08:55:31.979Z,24.05
2018-03-19T08:58:13.448Z,26.45
2018-03-19T09:00:57.199Z,24.35
2018-03-19T09:03:43.777Z,23.30
2018-03-19T09:06:15.584Z,25.57
2018-03-19T09:08:48.436Z,22.27
2018-03-19T09:11:23.722Z,25.80
2018-03-19T09:13:55.109Z,25.00
2018-03-19T09:16:32.948Z,23.42
2018-03-19T09:19:05.002Z,22.90
2018-03-19T09:21:36.542Z,23.85
2018-03-19T09:27:02.307Z,21.73
2018-03-19T09:29:33.292Z,23.38
2018-03-19T09:32:05.994Z,21.60
2018-03-19T09:34:37.859Z,22.40
2018-03-19T09:37:10.852Z,23.17
2018-03-19T09:39:42.907Z,24.20
2018-03-19T09:49:12.335Z,22.85
2018-03-19T09:51:43.359Z,22.13
2018-03-19T09:54:13.602Z,22.50
2018-03-19T09:56:45.558Z,27.83
2018-03-19T09:59:18.162Z,23.73
2018-03-19T10:01:49.474Z,23.85
2018-03-19T10:04:22.148Z,22.30
2018-03-19T10:06:55.058Z,23.58
2018-03-19T10:09:26.238Z,25.42
2018-03-19T10:12:04.491Z,21.83
2018-03-19T10:14:36.402Z,22.33
2018-03-19T10:17:07.020Z,23.50
2018-03-19T10:19:42.041Z,22.35
2018-03-19T10:22:14.517Z,20.53
2018-03-19T10:28:16.211Z,22.25
2018-03-19T10:31:01.836Z,23.83
2018-03-19T10:33:36.660Z,21.87
2018-03-19T10:36:07.474Z,23.85
2018-03-19T10:38:43.435Z,22.60
2018-03-19T10:41:41.090Z,23.70
2018-03-19T10:44:15.391Z,23.40
2018-03-19T10:46:49.236Z,24.15
2018-03-19T10:49:22.934Z,24.30
2018-03-19T10:51:55.533Z,22.20
2018-03-19T10:54:28.867Z,20.65
2018-03-19T10:57:38.280Z,24.02
2018-03-19T11:00:28.692Z,24.20
2018-03-19T11:03:05.334Z,22.37
2018-03-19T11:05:42.218Z,22.45
2018-03-19T11:08:17.332Z,22.40
2018-03-19T11:10:47.862Z,24.10
2018-03-19T11:13:19.227Z,23.33
2018-03-19T11:15:49.597Z,23.85
2018-03-19T11:18:20.586Z,22.75
2018-03-19T11:20:52.076Z,24.13
2018-03-19T11:23:22.551Z,23.17
2018-03-19T11:25:59.921Z,27.80
2018-03-19T11:30:11.347Z,26.12
2018-03-19T11:32:51.675Z,22.92
2018-03-19T11:35:29.987Z,23.73
2018-03-19T11:38:03.611Z,21.87
2018-03-19T11:40:34.657Z,23.03
2018-03-19T11:43:06.045Z,22.90
2018-03-19T11:45:36.973Z,23.40
2018-03-19T11:48:18.556Z,23.87
2018-03-19T11:51:04.606Z,23.83
2018-03-19T11:53:43.007Z,24.25
2018-03-19T11:56:17.476Z,24.25
2018-03-19T11:58:48.382Z,25.12
2018-03-19T12:01:29.403Z,24.12
2018-03-19T12:04:00.423Z,22.20
2018-03-19T12:06:32.872Z,23.25
2018-03-19T12:09:31.157Z,24.08
2018-03-19T12:12:05.761Z,22.08
2018-03-19T12:14:36.807Z,24.60
2018-03-19T12:17:07.451Z,23.70
2018-03-19T12:19:37.826Z,23.77
2018-03-19T12:22:08.449Z,21.50
2018-03-19T12:24:41.248Z,22.37
2018-03-19T12:27:14.841Z,23.20
2018-03-19T12:30:00.552Z,21.93
2018-03-19T12:32:31.459Z,22.73
2018-03-19T12:35:01.732Z,23.25
2018-03-19T12:37:32.632Z,24.77
2018-03-19T12:40:04.130Z,23.15
2018-03-19T12:42:41.392Z,24.92
2018-03-19T12:45:14.449Z,26.42
2018-03-19T12:48:30.136Z,24.52
2018-03-19T12:51:05.223Z,24.63
2018-03-19T12:53:41.054Z,23.48
2018-03-19T12:56:11.750Z,25.48
2018-03-19T12:58:44.066Z,25.60
2018-03-19T13:01:15.673Z,25.50
2018-03-19T13:03:46.307Z,23.55
2018-03-19T13:10:15.768Z,24.30
2018-03-19T13:12:50.580Z,24.13
2018-03-19T13:15:21.403Z,25.58
2018-03-19T13:17:52.153Z,23.23
2018-03-19T13:20:22.574Z,25.10
2018-03-19T13:22:55.292Z,23.23
2018-03-19T13:25:28.759Z,22.95
2018-03-19T13:28:00.232Z,23.33
2018-03-19T13:30:31.620Z,24.60
2018-03-19T13:33:03.168Z,24.15
2018-03-19T13:35:34.478Z,23.92
2018-03-19T13:38:07.989Z,23.33
2018-03-19T13:40:41.613Z,25.97
2018-03-19T13:43:14.073Z,22.83
2018-03-19T13:45:46.085Z,23.15
2018-03-19T13:51:51.903Z,25.87
2018-03-19T13:54:27.832Z,26.77
2018-03-19T13:57:02.671Z,26.73
2018-03-19T13:59:51.132Z,23.73
2018-03-19T14:03:27.781Z,25.20
2018-03-19T14:06:03.136Z,23.73
2018-03-19T14:08:51.999Z,23.85
2018-03-19T14:11:25.237Z,24.80
2018-03-19T14:13:56.474Z,25.23
2018-03-19T14:16:47.712Z,26.10
2018-03-19T14:19:18.923Z,23.17
2018-03-19T14:22:11.563Z,26.10
2018-03-19T14:24:44.060Z,26.33
2018-03-19T14:27:17.805Z,24.50
2018-03-19T14:29:50.560Z,25.33
2018-03-19T14:32:47.989Z,24.50
2018-03-19T14:53:29.108Z,27.75
2018-03-19T14:56:41.651Z,26.47
2018-03-19T14:59:30.407Z,26.45
2018-03-19T15:02:08.400Z,23.77
2018-03-19T15:05:05.942Z,25.58
2018-03-19T15:11:19.002Z,23.20
2018-03-19T15:14:18.369Z,25.30
2018-03-19T15:21:15.526Z,24.10
2018-03-19T15:23:48.979Z,26.45
2018-03-19T15:26:56.489Z,26.17
2018-03-19T15:29:33.728Z,23.47
2018-03-19T15:32:05.762Z,24.42
2018-03-19T15:34:42.611Z,27.13
2018-03-19T15:37:15.505Z,26.65
2018-03-19T17:05:20.594Z,29.60
2018-03-19T17:07:54.970Z,26.95
2018-03-19T17:10:26.508Z,30.13
2018-03-19T17:12:59.112Z,27.80
2018-03-19T17:15:31.622Z,27.87
2018-03-19T17:18:29.039Z,28.85
2018-03-19T17:21:01.126Z,27.58
2018-03-19T17:23:33.037Z,26.95
2018-03-19T17:26:03.829Z,26.37
2018-03-19T17:28:35.021Z,28.30
2018-03-19T17:31:05.967Z,29.48
2018-03-19T17:37:06.478Z,30.43
2018-03-19T17:39:39.804Z,28.87
2018-03-19T17:42:14.110Z,30.60
2018-03-19T17:44:47.690Z,28.70
2018-03-19T17:47:19.085Z,28.27
2018-03-19T17:49:51.064Z,26.73
2018-03-19T17:52:23.124Z,28.53
2018-03-19T17:54:53.903Z,29.92
2018-03-19T17:57:41.146Z,29.00
2018-03-19T18:00:20.172Z,29.90
2018-03-19T18:02:54.224Z,29.43
2018-03-19T18:05:32.361Z,31.73
2018-03-19T18:08:23.587Z,29.48
2018-03-19T18:10:55.553Z,29.90
2018-03-19T18:13:26.024Z,30.00
2018-03-19T18:15:56.971Z,30.87
2018-03-19T18:18:29.313Z,32.85
2018-03-19T18:21:00.204Z,30.85
2018-03-19T18:23:31.291Z,32.45
2018-03-19T18:26:10.194Z,33.08
2018-03-19T18:28:42.206Z,33.15
2018-03-19T18:31:13.716Z,32.03
2018-03-19T18:33:50.823Z,32.00
2018-03-19T18:36:30.328Z,31.87
2018-03-19T18:39:01.930Z,32.53
2018-03-19T18:41:35.229Z,30.50
2018-03-19T18:44:08.467Z,31.50
2018-03-19T18:46:39.903Z,31.63
2018-03-19T18:49:12.554Z,32.45
2018-03-19T18:51:46.754Z,32.80
2018-03-19T18:54:26.956Z,32.63
2018-03-19T18:56:58.018Z,33.07
2018-03-19T18:59:31.377Z,33.60
2018-03-19T19:02:02.127Z,32.40
2018-03-19T19:04:34.341Z,32.63
2018-03-19T19:07:05.775Z,33.53
2018-03-19T19:09:36.190Z,32.92
2018-03-19T19:12:06.803Z,31.73
2018-03-19T19:14:37.556Z,32.50
2018-03-19T19:17:08.243Z,33.30
2018-03-19T19:19:38.842Z,33.30
2018-03-19T19:22:09.550Z,32.92
2018-03-19T19:24:40.259Z,31.47
2018-03-19T19:27:15.048Z,31.23
2018-03-19T19:29:46.964Z,31.40
2018-03-19T19:32:23.166Z,33.40
2018-03-19T19:34:53.979Z,32.47
2018-03-19T19:37:26.766Z,33.47
2018-03-19T19:39:58.178Z,32.30
2018-03-19T19:42:29.522Z,31.85
2018-03-19T19:45:11.796Z,31.37
2018-03-19T19:47:48.674Z,33.72
2018-03-19T19:50:20.183Z,32.15
2018-03-19T19:52:51.890Z,31.10
2018-03-19T19:55:25.164Z,32.03
2018-03-19T19:57:56.501Z,31.77
2018-03-19T20:00:27.154Z,32.80
2018-03-19T20:02:58.584Z,30.20
2018-03-19T20:05:29.824Z,31.65
2018-03-19T20:08:00.424Z,31.63
2018-03-19T20:10:30.922Z,33.05
2018-03-19T20:13:03.387Z,31.95
2018-03-19T20:15:34.572Z,31.10
2018-03-19T20:18:06.852Z,30.52
2018-03-19T20:20:38.039Z,31.10
2018-03-19T20:23:10.635Z,30.33
2018-03-19T20:25:41.180Z,31.62
2018-03-19T20:28:13.408Z,30.58
2018-03-19T20:30:45.368Z,30.20
2018-03-19T20:33:19.618Z,28.50
2018-03-19T20:35:50.660Z,29.20
2018-03-19T20:38:22.834Z,29.27
2018-03-19T20:40:53.717Z,29.55
2018-03-19T20:43:24.858Z,30.33
2018-03-19T20:45:58.476Z,29.58
2018-03-19T20:48:39.169Z,31.27
2018-03-19T20:51:09.782Z,30.70
2018-03-19T20:53:40.869Z,31.33
2018-03-19T20:56:11.426Z,30.50
2018-03-19T20:58:43.267Z,31.27
2018-03-19T21:01:13.756Z,31.52
2018-03-19T21:03:45.127Z,29.12
2018-03-19T21:06:16.435Z,32.80
2018-03-19T21:08:47.507Z,32.85
2018-03-19T21:11:18.157Z,35.35
2018-03-19T21:13:49.175Z,32.60
2018-03-19T21:16:20.559Z,32.95
2018-03-19T21:18:52.126Z,33.65
2018-03-19T21:21:23.807Z,31.98
2018-03-19T21:23:57.674Z,31.85
2018-03-19T21:26:29.288Z,29.70
2018-03-19T21:29:04.573Z,32.90
2018-03-19T21:31:45.580Z,32.38
2018-03-19T21:34:16.515Z,32.20
2018-03-19T21:36:47.182Z,33.03
2018-03-19T21:39:18.034Z,31.50
2018-03-19T21:41:49.286Z,33.92
2018-03-19T21:44:20.623Z,32.80
2018-03-19T21:46:51.312Z,33.53
2018-03-19T21:49:25.202Z,32.03
2018-03-19T21:52:00.682Z,33.20
2018-03-19T21:54:32.752Z,33.28
2018-03-19T21:57:04.516Z,33.40
2018-03-19T21:59:44.238Z,32.93
2018-03-19T22:02:16.086Z,32.20
2018-03-19T22:04:48.039Z,33.47
2018-03-19T22:07:18.724Z,32.95
2018-03-19T22:09:50.037Z,33.60
2018-03-19T22:12:30.698Z,33.67
2018-03-19T22:15:01.864Z,32.08
2018-03-19T22:17:33.387Z,31.67
2018-03-19T22:20:04.559Z,33.80
2018-03-19T22:22:37.402Z,33.13
2018-03-19T22:25:08.178Z,32.08
2018-03-19T22:27:38.779Z,32.43
2018-03-19T22:30:09.460Z,31.77
2018-03-19T22:32:39.974Z,34.83
2018-03-19T22:35:11.504Z,31.97
2018-03-19T22:37:42.759Z,33.10
2018-03-19T22:40:14.560Z,32.37
2018-03-19T22:42:50.060Z,32.65
2018-03-19T22:45:21.039Z,32.15
2018-03-19T22:47:51.292Z,32.78
2018-03-19T22:50:21.509Z,32.75
2018-03-19T22:52:51.792Z,33.80
2018-03-19T22:55:22.814Z,33.42
2018-03-19T22:57:54.001Z,31.23
2018-03-19T23:00:26.289Z,32.53
2018-03-19T23:02:57.138Z,32.03
2018-03-19T23:05:28.590Z,33.67
2018-03-19T23:07:59.411Z,33.45
2018-03-19T23:10:30.178Z,33.07
2018-03-19T23:13:01.269Z,32.90
2018-03-19T23:15:32.214Z,35.27
2018-03-19T23:18:03.488Z,32.35
2018-03-19T23:20:34.152Z,33.78
2018-03-19T23:23:04.484Z,31.83
2018-03-19T23:25:35.519Z,32.40
2018-03-19T23:28:07.548Z,31.52
2018-03-19T23:30:38.280Z,32.50
2018-03-19T23:33:08.680Z,31.70
2018-03-19T23:35:39.272Z,33.42
2018-03-19T23:38:10.066Z,33.70
2018-03-19T23:40:40.530Z,33.78
2018-03-19T23:43:11.071Z,32.88
2018-03-19T23:45:42.202Z,32.60
2018-03-19T23:48:13.515Z,34.92
2018-03-19T23:50:44.013Z,34.38
2018-03-19T23:53:14.610Z,32.73
2018-03-19T23:55:45.881Z,33.92
2018-03-19T23:58:17.224Z,33.88
